sensor_id;sensor_type;location;lat;lon;timestamp;P1;durP1;ratioP1;P2;durP2;ratioP2
62848;SDS011;48941;49.516;8.286;2023-05-08T00:02:17;9.25;;;8.25;;
62848;SDS011;48941;49.516;8.286;2023-05-08T00:04:45;9.65;;;7.53;;
62848;SDS011;48941;49.516;8.286;2023-05-08T00:07:13;8.73;;;7.82;;
62848;SDS011;48941;49.516;8.286;2023-05-08T00:09:41;8.80;;;7.68;;
62848;SDS011;48941;49.516;8.286;2023-05-08T00:12:09;10.40;;;8.30;;
62848;SDS011;48941;49.516;8.286;2023-05-08T00:14:38;10.25;;;7.75;;
62848;SDS011;48941;49.516;8.286;2023-05-08T00:17:06;9.43;;;6.57;;
62848;SDS011;48941;49.516;8.286;2023-05-08T00:19:34;7.65;;;6.22;;
62848;SDS011;48941;49.516;8.286;2023-05-08T00:22:02;6.57;;;5.60;;
62848;SDS011;48941;49.516;8.286;2023-05-08T00:24:30;6.18;;;5.03;;
62848;SDS011;48941;49.516;8.286;2023-05-08T00:26:57;5.30;;;4.40;;
62848;SDS011;48941;49.516;8.286;2023-05-08T00:29:25;6.43;;;4.60;;
62848;SDS011;48941;49.516;8.286;2023-05-08T00:31:54;7.85;;;5.18;;
62848;SDS011;48941;49.516;8.286;2023-05-08T00:34:23;8.38;;;5.40;;
62848;SDS011;48941;49.516;8.286;2023-05-08T00:36:51;6.53;;;5.38;;
62848;SDS011;48941;49.516;8.286;2023-05-08T00:39:19;5.97;;;5.10;;
62848;SDS011;48941;49.516;8.286;2023-05-08T00:41:46;6.65;;;5.65;;
62848;SDS011;48941;49.516;8.286;2023-05-08T00:44:14;6.38;;;5.72;;
62848;SDS011;48941;49.516;8.286;2023-05-08T00:46:42;6.75;;;6.00;;
62848;SDS011;48941;49.516;8.286;2023-05-08T00:49:13;7.03;;;5.85;;
62848;SDS011;48941;49.516;8.286;2023-05-08T00:51:42;7.68;;;6.10;;
62848;SDS011;48941;49.516;8.286;2023-05-08T00:54:11;8.32;;;6.32;;
62848;SDS011;48941;49.516;8.286;2023-05-08T00:56:39;7.95;;;6.20;;
62848;SDS011;48941;49.516;8.286;2023-05-08T00:59:08;7.10;;;5.68;;
62848;SDS011;48941;49.516;8.286;2023-05-08T01:01:37;7.10;;;5.90;;
62848;SDS011;48941;49.516;8.286;2023-05-08T01:04:06;6.55;;;5.32;;
62848;SDS011;48941;49.516;8.286;2023-05-08T01:06:36;6.78;;;5.55;;
62848;SDS011;48941;49.516;8.286;2023-05-08T01:09:04;8.52;;;5.75;;
62848;SDS011;48941;49.516;8.286;2023-05-08T01:11:33;6.85;;;5.72;;
62848;SDS011;48941;49.516;8.286;2023-05-08T01:14:08;7.80;;;5.67;;
62848;SDS011;48941;49.516;8.286;2023-05-08T01:16:43;7.63;;;6.15;;
62848;SDS011;48941;49.516;8.286;2023-05-08T01:19:39;5.60;;;5.10;;
62848;SDS011;48941;49.516;8.286;2023-05-08T01:22:31;8.68;;;5.75;;
62848;SDS011;48941;49.516;8.286;2023-05-08T01:28:24;6.88;;;6.05;;
62848;SDS011;48941;49.516;8.286;2023-05-08T01:31:11;6.70;;;6.00;;
62848;SDS011;48941;49.516;8.286;2023-05-08T01:33:50;10.48;;;6.43;;
62848;SDS011;48941;49.516;8.286;2023-05-08T01:36:24;8.77;;;6.38;;
62848;SDS011;48941;49.516;8.286;2023-05-08T01:39:02;9.45;;;6.03;;
62848;SDS011;48941;49.516;8.286;2023-05-08T01:41:36;7.57;;;5.55;;
62848;SDS011;48941;49.516;8.286;2023-05-08T01:44:09;5.85;;;5.25;;
62848;SDS011;48941;49.516;8.286;2023-05-08T01:46:42;8.60;;;5.20;;
62848;SDS011;48941;49.516;8.286;2023-05-08T01:49:16;5.15;;;4.65;;
62848;SDS011;48941;49.516;8.286;2023-05-08T01:51:52;9.50;;;5.05;;
62848;SDS011;48941;49.516;8.286;2023-05-08T01:54:26;5.70;;;5.05;;
62848;SDS011;48941;49.516;8.286;2023-05-08T01:56:56;7.00;;;5.07;;
62848;SDS011;48941;49.516;8.286;2023-05-08T01:59:27;8.63;;;5.00;;
62848;SDS011;48941;49.516;8.286;2023-05-08T02:01:57;7.78;;;5.20;;
62848;SDS011;48941;49.516;8.286;2023-05-08T02:04:29;9.38;;;5.47;;
62848;SDS011;48941;49.516;8.286;2023-05-08T02:06:58;9.10;;;5.45;;
62848;SDS011;48941;49.516;8.286;2023-05-08T02:09:27;9.45;;;5.43;;
62848;SDS011;48941;49.516;8.286;2023-05-08T02:11:57;7.18;;;5.40;;
62848;SDS011;48941;49.516;8.286;2023-05-08T02:14:29;8.00;;;5.70;;
62848;SDS011;48941;49.516;8.286;2023-05-08T02:16:58;7.70;;;5.30;;
62848;SDS011;48941;49.516;8.286;2023-05-08T02:19:30;6.90;;;5.97;;
62848;SDS011;48941;49.516;8.286;2023-05-08T02:22:00;8.50;;;6.00;;
62848;SDS011;48941;49.516;8.286;2023-05-08T02:24:29;7.57;;;6.35;;
62848;SDS011;48941;49.516;8.286;2023-05-08T02:26:58;6.72;;;5.55;;
62848;SDS011;48941;49.516;8.286;2023-05-08T02:29:27;7.57;;;6.15;;
62848;SDS011;48941;49.516;8.286;2023-05-08T02:31:56;9.27;;;6.32;;
62848;SDS011;48941;49.516;8.286;2023-05-08T02:34:26;8.18;;;6.60;;
62848;SDS011;48941;49.516;8.286;2023-05-08T02:36:56;7.75;;;6.40;;
62848;SDS011;48941;49.516;8.286;2023-05-08T02:39:25;7.03;;;6.30;;
62848;SDS011;48941;49.516;8.286;2023-05-08T02:41:57;8.00;;;6.57;;
62848;SDS011;48941;49.516;8.286;2023-05-08T02:44:25;8.80;;;6.65;;
62848;SDS011;48941;49.516;8.286;2023-05-08T02:46:55;8.48;;;6.82;;
62848;SDS011;48941;49.516;8.286;2023-05-08T02:49:27;8.10;;;7.13;;
62848;SDS011;48941;49.516;8.286;2023-05-08T02:52:02;8.52;;;7.63;;
62848;SDS011;48941;49.516;8.286;2023-05-08T02:54:35;8.82;;;7.40;;
62848;SDS011;48941;49.516;8.286;2023-05-08T02:57:09;11.75;;;7.68;;
62848;SDS011;48941;49.516;8.286;2023-05-08T02:59:50;10.82;;;8.15;;
62848;SDS011;48941;49.516;8.286;2023-05-08T03:02:25;14.55;;;8.60;;
62848;SDS011;48941;49.516;8.286;2023-05-08T03:05:01;8.60;;;7.70;;
62848;SDS011;48941;49.516;8.286;2023-05-08T03:07:35;8.68;;;7.78;;
62848;SDS011;48941;49.516;8.286;2023-05-08T03:10:09;9.20;;;7.90;;
62848;SDS011;48941;49.516;8.286;2023-05-08T03:12:41;10.40;;;8.85;;
62848;SDS011;48941;49.516;8.286;2023-05-08T03:15:13;11.93;;;9.43;;
62848;SDS011;48941;49.516;8.286;2023-05-08T03:17:49;12.40;;;10.20;;
62848;SDS011;48941;49.516;8.286;2023-05-08T03:20:21;14.63;;;11.18;;
62848;SDS011;48941;49.516;8.286;2023-05-08T03:22:54;14.35;;;10.52;;
62848;SDS011;48941;49.516;8.286;2023-05-08T03:25:22;16.40;;;10.80;;
62848;SDS011;48941;49.516;8.286;2023-05-08T03:27:52;12.63;;;10.40;;
62848;SDS011;48941;49.516;8.286;2023-05-08T03:30:21;15.88;;;10.50;;
62848;SDS011;48941;49.516;8.286;2023-05-08T03:32:50;15.73;;;11.43;;
62848;SDS011;48941;49.516;8.286;2023-05-08T03:35:19;17.67;;;11.32;;
62848;SDS011;48941;49.516;8.286;2023-05-08T03:37:48;21.23;;;11.80;;
62848;SDS011;48941;49.516;8.286;2023-05-08T03:40:18;15.38;;;11.30;;
62848;SDS011;48941;49.516;8.286;2023-05-08T03:42:46;17.25;;;11.73;;
62848;SDS011;48941;49.516;8.286;2023-05-08T03:45:15;13.73;;;11.23;;
62848;SDS011;48941;49.516;8.286;2023-05-08T03:47:43;15.45;;;11.60;;
62848;SDS011;48941;49.516;8.286;2023-05-08T03:50:12;14.45;;;10.93;;
62848;SDS011;48941;49.516;8.286;2023-05-08T03:52:42;15.27;;;12.02;;
62848;SDS011;48941;49.516;8.286;2023-05-08T03:55:10;17.13;;;12.52;;
62848;SDS011;48941;49.516;8.286;2023-05-08T03:57:41;15.40;;;12.18;;
62848;SDS011;48941;49.516;8.286;2023-05-08T04:00:18;17.40;;;12.07;;
62848;SDS011;48941;49.516;8.286;2023-05-08T04:02:55;15.98;;;11.68;;
62848;SDS011;48941;49.516;8.286;2023-05-08T04:05:30;15.20;;;11.57;;
62848;SDS011;48941;49.516;8.286;2023-05-08T04:08:04;15.88;;;11.48;;
62848;SDS011;48941;49.516;8.286;2023-05-08T04:10:36;16.02;;;11.07;;
62848;SDS011;48941;49.516;8.286;2023-05-08T04:13:11;14.82;;;11.13;;
62848;SDS011;48941;49.516;8.286;2023-05-08T04:15:43;15.50;;;11.32;;
62848;SDS011;48941;49.516;8.286;2023-05-08T04:18:15;14.70;;;11.20;;
62848;SDS011;48941;49.516;8.286;2023-05-08T04:20:45;15.48;;;11.15;;
62848;SDS011;48941;49.516;8.286;2023-05-08T04:23:14;14.23;;;10.98;;
62848;SDS011;48941;49.516;8.286;2023-05-08T04:25:47;17.02;;;12.32;;
62848;SDS011;48941;49.516;8.286;2023-05-08T04:28:18;13.52;;;11.30;;
62848;SDS011;48941;49.516;8.286;2023-05-08T04:30:47;15.80;;;11.40;;
62848;SDS011;48941;49.516;8.286;2023-05-08T04:33:16;16.98;;;10.57;;
62848;SDS011;48941;49.516;8.286;2023-05-08T04:35:45;14.68;;;11.50;;
62848;SDS011;48941;49.516;8.286;2023-05-08T04:38:13;12.75;;;10.32;;
62848;SDS011;48941;49.516;8.286;2023-05-08T04:40:41;13.02;;;11.30;;
62848;SDS011;48941;49.516;8.286;2023-05-08T04:43:08;14.10;;;11.20;;
62848;SDS011;48941;49.516;8.286;2023-05-08T04:45:37;13.48;;;10.55;;
62848;SDS011;48941;49.516;8.286;2023-05-08T04:48:05;16.27;;;11.13;;
62848;SDS011;48941;49.516;8.286;2023-05-08T04:50:33;14.30;;;11.20;;
62848;SDS011;48941;49.516;8.286;2023-05-08T04:53:01;14.27;;;10.85;;
62848;SDS011;48941;49.516;8.286;2023-05-08T04:55:29;15.85;;;11.05;;
62848;SDS011;48941;49.516;8.286;2023-05-08T04:57:57;16.15;;;11.05;;
62848;SDS011;48941;49.516;8.286;2023-05-08T05:00:25;16.60;;;11.57;;
62848;SDS011;48941;49.516;8.286;2023-05-08T05:02:54;14.52;;;10.00;;
62848;SDS011;48941;49.516;8.286;2023-05-08T05:05:22;16.02;;;10.98;;
62848;SDS011;48941;49.516;8.286;2023-05-08T05:07:50;12.40;;;10.52;;
62848;SDS011;48941;49.516;8.286;2023-05-08T05:10:17;14.85;;;10.25;;
62848;SDS011;48941;49.516;8.286;2023-05-08T05:12:45;14.02;;;11.15;;
62848;SDS011;48941;49.516;8.286;2023-05-08T05:15:13;11.60;;;10.27;;
62848;SDS011;48941;49.516;8.286;2023-05-08T05:17:41;14.82;;;10.30;;
62848;SDS011;48941;49.516;8.286;2023-05-08T05:20:11;15.50;;;10.80;;
62848;SDS011;48941;49.516;8.286;2023-05-08T05:22:40;16.45;;;10.40;;
62848;SDS011;48941;49.516;8.286;2023-05-08T05:25:08;13.48;;;10.52;;
62848;SDS011;48941;49.516;8.286;2023-05-08T05:27:37;14.05;;;10.40;;
62848;SDS011;48941;49.516;8.286;2023-05-08T05:30:05;11.88;;;10.30;;
62848;SDS011;48941;49.516;8.286;2023-05-08T05:32:34;17.35;;;10.75;;
62848;SDS011;48941;49.516;8.286;2023-05-08T05:35:02;11.60;;;9.63;;
62848;SDS011;48941;49.516;8.286;2023-05-08T05:37:31;12.18;;;10.18;;
62848;SDS011;48941;49.516;8.286;2023-05-08T05:39:59;13.38;;;9.93;;
62848;SDS011;48941;49.516;8.286;2023-05-08T05:42:26;12.10;;;10.20;;
62848;SDS011;48941;49.516;8.286;2023-05-08T05:44:54;15.20;;;10.23;;
62848;SDS011;48941;49.516;8.286;2023-05-08T05:47:22;13.40;;;9.93;;
62848;SDS011;48941;49.516;8.286;2023-05-08T05:49:50;18.80;;;10.13;;
62848;SDS011;48941;49.516;8.286;2023-05-08T05:52:18;13.27;;;9.48;;
62848;SDS011;48941;49.516;8.286;2023-05-08T05:54:47;11.07;;;9.60;;
62848;SDS011;48941;49.516;8.286;2023-05-08T05:57:15;11.02;;;9.05;;
62848;SDS011;48941;49.516;8.286;2023-05-08T05:59:43;17.55;;;10.00;;
62848;SDS011;48941;49.516;8.286;2023-05-08T06:02:11;13.15;;;9.48;;
62848;SDS011;48941;49.516;8.286;2023-05-08T06:04:44;11.98;;;9.63;;
62848;SDS011;48941;49.516;8.286;2023-05-08T06:07:12;11.32;;;9.40;;
62848;SDS011;48941;49.516;8.286;2023-05-08T06:09:40;11.20;;;8.90;;
62848;SDS011;48941;49.516;8.286;2023-05-08T06:12:09;12.70;;;9.50;;
62848;SDS011;48941;49.516;8.286;2023-05-08T06:14:37;13.85;;;9.20;;
62848;SDS011;48941;49.516;8.286;2023-05-08T06:17:06;13.13;;;9.13;;
62848;SDS011;48941;49.516;8.286;2023-05-08T06:19:34;11.75;;;9.50;;
62848;SDS011;48941;49.516;8.286;2023-05-08T06:22:02;11.80;;;9.20;;
62848;SDS011;48941;49.516;8.286;2023-05-08T06:24:29;11.15;;;8.40;;
62848;SDS011;48941;49.516;8.286;2023-05-08T06:26:57;12.10;;;9.02;;
62848;SDS011;48941;49.516;8.286;2023-05-08T06:29:26;13.32;;;9.45;;
62848;SDS011;48941;49.516;8.286;2023-05-08T06:31:54;14.20;;;9.32;;
62848;SDS011;48941;49.516;8.286;2023-05-08T06:34:22;12.88;;;8.55;;
62848;SDS011;48941;49.516;8.286;2023-05-08T06:36:50;12.15;;;8.90;;
62848;SDS011;48941;49.516;8.286;2023-05-08T06:39:17;13.80;;;9.60;;
62848;SDS011;48941;49.516;8.286;2023-05-08T06:41:45;12.43;;;9.45;;
62848;SDS011;48941;49.516;8.286;2023-05-08T06:44:13;12.30;;;8.98;;
62848;SDS011;48941;49.516;8.286;2023-05-08T06:46:43;14.55;;;8.73;;
62848;SDS011;48941;49.516;8.286;2023-05-08T06:49:11;11.43;;;8.70;;
62848;SDS011;48941;49.516;8.286;2023-05-08T06:51:39;14.23;;;10.20;;
62848;SDS011;48941;49.516;8.286;2023-05-08T06:54:07;12.52;;;9.52;;
62848;SDS011;48941;49.516;8.286;2023-05-08T06:56:34;11.60;;;9.10;;
62848;SDS011;48941;49.516;8.286;2023-05-08T06:59:02;11.48;;;9.38;;
62848;SDS011;48941;49.516;8.286;2023-05-08T07:01:34;10.33;;;8.80;;
62848;SDS011;48941;49.516;8.286;2023-05-08T07:04:04;10.43;;;9.27;;
62848;SDS011;48941;49.516;8.286;2023-05-08T07:06:32;12.82;;;9.05;;
62848;SDS011;48941;49.516;8.286;2023-05-08T07:09:00;12.50;;;10.02;;
62848;SDS011;48941;49.516;8.286;2023-05-08T07:11:28;12.85;;;9.50;;
62848;SDS011;48941;49.516;8.286;2023-05-08T07:13:56;12.45;;;9.50;;
62848;SDS011;48941;49.516;8.286;2023-05-08T07:16:25;13.02;;;9.70;;
62848;SDS011;48941;49.516;8.286;2023-05-08T07:18:53;14.75;;;10.23;;
62848;SDS011;48941;49.516;8.286;2023-05-08T07:21:22;13.05;;;10.05;;
62848;SDS011;48941;49.516;8.286;2023-05-08T07:23:50;14.00;;;9.40;;
62848;SDS011;48941;49.516;8.286;2023-05-08T07:26:19;10.70;;;8.90;;
62848;SDS011;48941;49.516;8.286;2023-05-08T07:28:47;17.27;;;9.32;;
62848;SDS011;48941;49.516;8.286;2023-05-08T07:31:16;11.93;;;8.88;;
62848;SDS011;48941;49.516;8.286;2023-05-08T07:33:43;11.07;;;8.73;;
62848;SDS011;48941;49.516;8.286;2023-05-08T07:36:12;10.23;;;8.35;;
62848;SDS011;48941;49.516;8.286;2023-05-08T07:38:41;10.55;;;8.25;;
62848;SDS011;48941;49.516;8.286;2023-05-08T07:41:09;11.75;;;9.02;;
62848;SDS011;48941;49.516;8.286;2023-05-08T07:43:37;10.35;;;8.57;;
62848;SDS011;48941;49.516;8.286;2023-05-08T07:46:05;15.85;;;8.85;;
62848;SDS011;48941;49.516;8.286;2023-05-08T07:48:33;10.52;;;8.30;;
62848;SDS011;48941;49.516;8.286;2023-05-08T07:51:01;10.55;;;8.27;;
62848;SDS011;48941;49.516;8.286;2023-05-08T07:53:29;12.52;;;8.20;;
62848;SDS011;48941;49.516;8.286;2023-05-08T07:55:58;10.70;;;8.68;;
62848;SDS011;48941;49.516;8.286;2023-05-08T07:58:26;10.45;;;8.38;;
62848;SDS011;48941;49.516;8.286;2023-05-08T08:00:54;10.55;;;8.85;;
62848;SDS011;48941;49.516;8.286;2023-05-08T08:03:22;12.23;;;8.57;;
62848;SDS011;48941;49.516;8.286;2023-05-08T08:05:50;14.35;;;8.15;;
62848;SDS011;48941;49.516;8.286;2023-05-08T08:08:19;16.50;;;8.98;;
62848;SDS011;48941;49.516;8.286;2023-05-08T08:10:46;11.85;;;8.73;;
62848;SDS011;48941;49.516;8.286;2023-05-08T08:13:16;10.65;;;9.05;;
62848;SDS011;48941;49.516;8.286;2023-05-08T08:15:44;12.10;;;8.60;;
62848;SDS011;48941;49.516;8.286;2023-05-08T08:18:12;10.98;;;8.68;;
62848;SDS011;48941;49.516;8.286;2023-05-08T08:20:40;10.13;;;8.85;;
62848;SDS011;48941;49.516;8.286;2023-05-08T08:23:09;9.52;;;8.50;;
62848;SDS011;48941;49.516;8.286;2023-05-08T08:25:37;9.85;;;8.73;;
62848;SDS011;48941;49.516;8.286;2023-05-08T08:28:04;10.57;;;8.80;;
62848;SDS011;48941;49.516;8.286;2023-05-08T08:30:34;10.57;;;8.70;;
62848;SDS011;48941;49.516;8.286;2023-05-08T08:33:02;12.93;;;8.57;;
62848;SDS011;48941;49.516;8.286;2023-05-08T08:35:31;11.40;;;8.65;;
62848;SDS011;48941;49.516;8.286;2023-05-08T08:37:59;10.25;;;8.57;;
62848;SDS011;48941;49.516;8.286;2023-05-08T08:40:27;11.20;;;9.27;;
62848;SDS011;48941;49.516;8.286;2023-05-08T08:42:55;10.48;;;9.25;;
62848;SDS011;48941;49.516;8.286;2023-05-08T08:45:23;11.90;;;9.88;;
62848;SDS011;48941;49.516;8.286;2023-05-08T08:47:53;10.50;;;9.10;;
62848;SDS011;48941;49.516;8.286;2023-05-08T08:50:22;11.88;;;8.80;;
62848;SDS011;48941;49.516;8.286;2023-05-08T08:52:55;11.90;;;8.63;;
62848;SDS011;48941;49.516;8.286;2023-05-08T08:55:27;10.75;;;9.02;;
62848;SDS011;48941;49.516;8.286;2023-05-08T08:58:00;23.13;;;17.75;;
62848;SDS011;48941;49.516;8.286;2023-05-08T09:00:33;13.05;;;9.13;;
62848;SDS011;48941;49.516;8.286;2023-05-08T09:03:05;13.45;;;8.88;;
62848;SDS011;48941;49.516;8.286;2023-05-08T09:05:34;13.07;;;9.25;;
62848;SDS011;48941;49.516;8.286;2023-05-08T09:08:02;10.88;;;9.30;;
62848;SDS011;48941;49.516;8.286;2023-05-08T09:10:30;13.13;;;10.07;;
62848;SDS011;48941;49.516;8.286;2023-05-08T09:12:58;14.65;;;9.25;;
62848;SDS011;48941;49.516;8.286;2023-05-08T09:15:26;13.23;;;10.15;;
62848;SDS011;48941;49.516;8.286;2023-05-08T09:17:54;18.95;;;11.93;;
62848;SDS011;48941;49.516;8.286;2023-05-08T09:20:23;15.57;;;9.55;;
62848;SDS011;48941;49.516;8.286;2023-05-08T09:22:51;10.95;;;9.32;;
62848;SDS011;48941;49.516;8.286;2023-05-08T09:25:20;10.93;;;9.73;;
62848;SDS011;48941;49.516;8.286;2023-05-08T09:27:49;12.82;;;10.27;;
62848;SDS011;48941;49.516;8.286;2023-05-08T09:30:17;13.30;;;10.18;;
62848;SDS011;48941;49.516;8.286;2023-05-08T09:32:45;15.93;;;11.18;;
62848;SDS011;48941;49.516;8.286;2023-05-08T09:35:13;13.90;;;9.93;;
62848;SDS011;48941;49.516;8.286;2023-05-08T09:37:42;11.68;;;9.68;;
62848;SDS011;48941;49.516;8.286;2023-05-08T09:40:15;11.75;;;10.23;;
62848;SDS011;48941;49.516;8.286;2023-05-08T09:42:44;13.80;;;9.73;;
62848;SDS011;48941;49.516;8.286;2023-05-08T09:45:24;12.82;;;10.30;;
62848;SDS011;48941;49.516;8.286;2023-05-08T09:47:53;11.32;;;10.10;;
62848;SDS011;48941;49.516;8.286;2023-05-08T09:50:21;10.85;;;9.38;;
62848;SDS011;48941;49.516;8.286;2023-05-08T09:52:50;10.70;;;9.25;;
62848;SDS011;48941;49.516;8.286;2023-05-08T09:55:18;10.25;;;9.25;;
62848;SDS011;48941;49.516;8.286;2023-05-08T09:57:53;12.63;;;9.52;;
62848;SDS011;48941;49.516;8.286;2023-05-08T10:00:23;11.90;;;9.27;;
62848;SDS011;48941;49.516;8.286;2023-05-08T10:02:55;11.23;;;9.57;;
62848;SDS011;48941;49.516;8.286;2023-05-08T10:05:24;11.43;;;9.07;;
62848;SDS011;48941;49.516;8.286;2023-05-08T10:07:57;13.73;;;9.65;;
62848;SDS011;48941;49.516;8.286;2023-05-08T10:10:25;11.63;;;9.52;;
62848;SDS011;48941;49.516;8.286;2023-05-08T10:12:54;19.23;;;9.27;;
62848;SDS011;48941;49.516;8.286;2023-05-08T10:15:24;18.30;;;9.57;;
62848;SDS011;48941;49.516;8.286;2023-05-08T10:17:57;11.43;;;9.27;;
62848;SDS011;48941;49.516;8.286;2023-05-08T10:20:29;11.02;;;9.30;;
62848;SDS011;48941;49.516;8.286;2023-05-08T10:23:00;14.07;;;9.73;;
62848;SDS011;48941;49.516;8.286;2023-05-08T10:25:30;10.93;;;8.98;;
62848;SDS011;48941;49.516;8.286;2023-05-08T10:28:02;10.43;;;9.32;;
62848;SDS011;48941;49.516;8.286;2023-05-08T10:30:37;12.05;;;9.52;;
62848;SDS011;48941;49.516;8.286;2023-05-08T10:33:09;11.02;;;9.48;;
62848;SDS011;48941;49.516;8.286;2023-05-08T10:35:37;13.23;;;9.32;;
62848;SDS011;48941;49.516;8.286;2023-05-08T10:38:08;13.80;;;10.80;;
62848;SDS011;48941;49.516;8.286;2023-05-08T10:40:36;10.95;;;9.57;;
62848;SDS011;48941;49.516;8.286;2023-05-08T10:43:05;11.55;;;9.43;;
62848;SDS011;48941;49.516;8.286;2023-05-08T10:45:33;15.48;;;9.85;;
62848;SDS011;48941;49.516;8.286;2023-05-08T10:48:02;14.15;;;9.38;;
62848;SDS011;48941;49.516;8.286;2023-05-08T10:50:39;13.82;;;10.73;;
62848;SDS011;48941;49.516;8.286;2023-05-08T10:53:19;13.43;;;10.07;;
62848;SDS011;48941;49.516;8.286;2023-05-08T10:55:55;11.82;;;10.27;;
62848;SDS011;48941;49.516;8.286;2023-05-08T10:58:32;16.15;;;10.30;;
62848;SDS011;48941;49.516;8.286;2023-05-08T11:01:09;11.75;;;9.77;;
62848;SDS011;48941;49.516;8.286;2023-05-08T11:03:42;20.45;;;10.20;;
62848;SDS011;48941;49.516;8.286;2023-05-08T11:06:12;12.95;;;9.77;;
62848;SDS011;48941;49.516;8.286;2023-05-08T11:08:48;14.55;;;10.35;;
62848;SDS011;48941;49.516;8.286;2023-05-08T11:11:26;12.07;;;9.93;;
62848;SDS011;48941;49.516;8.286;2023-05-08T11:13:58;12.90;;;9.85;;
62848;SDS011;48941;49.516;8.286;2023-05-08T11:19:36;13.10;;;10.50;;
62848;SDS011;48941;49.516;8.286;2023-05-08T11:22:14;13.02;;;10.57;;
62848;SDS011;48941;49.516;8.286;2023-05-08T11:24:48;11.70;;;10.25;;
62848;SDS011;48941;49.516;8.286;2023-05-08T11:27:29;11.98;;;10.30;;
62848;SDS011;48941;49.516;8.286;2023-05-08T11:30:17;13.55;;;10.52;;
62848;SDS011;48941;49.516;8.286;2023-05-08T11:32:55;14.05;;;10.60;;
62848;SDS011;48941;49.516;8.286;2023-05-08T11:35:40;13.00;;;10.88;;
62848;SDS011;48941;49.516;8.286;2023-05-08T11:38:19;14.27;;;11.38;;
62848;SDS011;48941;49.516;8.286;2023-05-08T11:40:53;12.52;;;10.77;;
62848;SDS011;48941;49.516;8.286;2023-05-08T11:43:24;15.07;;;10.32;;
62848;SDS011;48941;49.516;8.286;2023-05-08T11:45:53;14.45;;;10.98;;
62848;SDS011;48941;49.516;8.286;2023-05-08T11:48:27;15.63;;;11.55;;
62848;SDS011;48941;49.516;8.286;2023-05-08T11:50:55;16.05;;;12.20;;
62848;SDS011;48941;49.516;8.286;2023-05-08T11:53:23;12.52;;;11.23;;
62848;SDS011;48941;49.516;8.286;2023-05-08T11:55:52;16.73;;;12.18;;
62848;SDS011;48941;49.516;8.286;2023-05-08T11:58:21;12.43;;;11.05;;
62848;SDS011;48941;49.516;8.286;2023-05-08T12:00:49;13.75;;;11.63;;
62848;SDS011;48941;49.516;8.286;2023-05-08T12:03:17;15.07;;;11.52;;
62848;SDS011;48941;49.516;8.286;2023-05-08T12:05:46;13.77;;;11.55;;
62848;SDS011;48941;49.516;8.286;2023-05-08T12:08:16;17.08;;;11.63;;
62848;SDS011;48941;49.516;8.286;2023-05-08T12:10:48;16.13;;;11.95;;
62848;SDS011;48941;49.516;8.286;2023-05-08T12:13:19;21.38;;;12.10;;
62848;SDS011;48941;49.516;8.286;2023-05-08T12:15:49;14.05;;;11.68;;
62848;SDS011;48941;49.516;8.286;2023-05-08T12:18:18;15.95;;;11.75;;
62848;SDS011;48941;49.516;8.286;2023-05-08T12:20:50;18.00;;;13.73;;
62848;SDS011;48941;49.516;8.286;2023-05-08T12:23:18;13.75;;;11.98;;
62848;SDS011;48941;49.516;8.286;2023-05-08T12:25:46;15.60;;;13.27;;
62848;SDS011;48941;49.516;8.286;2023-05-08T12:28:22;19.75;;;13.88;;
62848;SDS011;48941;49.516;8.286;2023-05-08T12:30:50;18.88;;;14.80;;
62848;SDS011;48941;49.516;8.286;2023-05-08T12:33:18;18.83;;;15.13;;
62848;SDS011;48941;49.516;8.286;2023-05-08T12:35:47;19.30;;;14.27;;
62848;SDS011;48941;49.516;8.286;2023-05-08T12:38:15;18.90;;;13.93;;
62848;SDS011;48941;49.516;8.286;2023-05-08T12:40:44;18.70;;;13.68;;
62848;SDS011;48941;49.516;8.286;2023-05-08T12:43:14;14.40;;;11.82;;
62848;SDS011;48941;49.516;8.286;2023-05-08T12:45:43;18.52;;;13.55;;
62848;SDS011;48941;49.516;8.286;2023-05-08T12:48:13;19.05;;;13.98;;
62848;SDS011;48941;49.516;8.286;2023-05-08T12:50:42;19.85;;;14.23;;
62848;SDS011;48941;49.516;8.286;2023-05-08T12:53:11;24.48;;;14.15;;
62848;SDS011;48941;49.516;8.286;2023-05-08T12:55:48;21.55;;;14.50;;
62848;SDS011;48941;49.516;8.286;2023-05-08T12:58:19;19.80;;;15.48;;
62848;SDS011;48941;49.516;8.286;2023-05-08T13:00:52;20.07;;;15.43;;
62848;SDS011;48941;49.516;8.286;2023-05-08T13:03:20;19.42;;;14.63;;
62848;SDS011;48941;49.516;8.286;2023-05-08T13:05:51;16.58;;;14.02;;
62848;SDS011;48941;49.516;8.286;2023-05-08T13:08:19;16.35;;;14.45;;
62848;SDS011;48941;49.516;8.286;2023-05-08T13:10:57;17.67;;;14.10;;
62848;SDS011;48941;49.516;8.286;2023-05-08T13:13:25;16.55;;;13.70;;
62848;SDS011;48941;49.516;8.286;2023-05-08T13:15:55;14.30;;;12.60;;
62848;SDS011;48941;49.516;8.286;2023-05-08T13:18:24;17.52;;;12.85;;
62848;SDS011;48941;49.516;8.286;2023-05-08T13:20:53;18.73;;;12.32;;
62848;SDS011;48941;49.516;8.286;2023-05-08T13:23:21;16.08;;;12.07;;
62848;SDS011;48941;49.516;8.286;2023-05-08T13:25:50;16.17;;;11.95;;
62848;SDS011;48941;49.516;8.286;2023-05-08T13:28:18;15.75;;;12.32;;
62848;SDS011;48941;49.516;8.286;2023-05-08T13:30:46;14.95;;;12.27;;
62848;SDS011;48941;49.516;8.286;2023-05-08T13:33:15;14.00;;;11.55;;
62848;SDS011;48941;49.516;8.286;2023-05-08T13:35:43;14.90;;;12.07;;
62848;SDS011;48941;49.516;8.286;2023-05-08T13:38:11;16.33;;;12.35;;
62848;SDS011;48941;49.516;8.286;2023-05-08T13:40:38;14.25;;;12.07;;
62848;SDS011;48941;49.516;8.286;2023-05-08T13:43:06;13.98;;;11.80;;
62848;SDS011;48941;49.516;8.286;2023-05-08T13:45:34;20.58;;;14.65;;
62848;SDS011;48941;49.516;8.286;2023-05-08T13:48:02;16.00;;;12.30;;
62848;SDS011;48941;49.516;8.286;2023-05-08T13:50:32;15.02;;;12.55;;
62848;SDS011;48941;49.516;8.286;2023-05-08T13:53:00;15.90;;;13.10;;
62848;SDS011;48941;49.516;8.286;2023-05-08T13:55:27;14.70;;;12.00;;
62848;SDS011;48941;49.516;8.286;2023-05-08T13:57:55;15.88;;;12.85;;
62848;SDS011;48941;49.516;8.286;2023-05-08T14:00:24;15.20;;;11.80;;
62848;SDS011;48941;49.516;8.286;2023-05-08T14:02:53;16.55;;;12.88;;
62848;SDS011;48941;49.516;8.286;2023-05-08T14:05:21;13.52;;;11.73;;
62848;SDS011;48941;49.516;8.286;2023-05-08T14:07:50;13.23;;;11.18;;
62848;SDS011;48941;49.516;8.286;2023-05-08T14:10:18;13.38;;;10.73;;
62848;SDS011;48941;49.516;8.286;2023-05-08T14:12:46;16.45;;;10.80;;
62848;SDS011;48941;49.516;8.286;2023-05-08T14:15:14;12.35;;;10.93;;
62848;SDS011;48941;49.516;8.286;2023-05-08T14:17:42;13.02;;;11.55;;
62848;SDS011;48941;49.516;8.286;2023-05-08T14:20:10;17.80;;;15.15;;
62848;SDS011;48941;49.516;8.286;2023-05-08T14:22:38;13.48;;;11.02;;
62848;SDS011;48941;49.516;8.286;2023-05-08T14:25:08;17.52;;;10.68;;
62848;SDS011;48941;49.516;8.286;2023-05-08T14:27:37;15.52;;;11.13;;
62848;SDS011;48941;49.516;8.286;2023-05-08T14:30:05;12.80;;;11.13;;
62848;SDS011;48941;49.516;8.286;2023-05-08T14:32:34;12.77;;;10.13;;
62848;SDS011;48941;49.516;8.286;2023-05-08T14:35:02;10.40;;;8.77;;
62848;SDS011;48941;49.516;8.286;2023-05-08T14:37:30;10.38;;;8.02;;
62848;SDS011;48941;49.516;8.286;2023-05-08T14:39:58;13.45;;;8.63;;
62848;SDS011;48941;49.516;8.286;2023-05-08T14:42:27;13.15;;;8.52;;
62848;SDS011;48941;49.516;8.286;2023-05-08T14:44:55;8.63;;;7.68;;
62848;SDS011;48941;49.516;8.286;2023-05-08T14:47:23;11.23;;;8.10;;
62848;SDS011;48941;49.516;8.286;2023-05-08T14:49:51;8.68;;;7.47;;
62848;SDS011;48941;49.516;8.286;2023-05-08T14:52:19;9.77;;;7.57;;
62848;SDS011;48941;49.516;8.286;2023-05-08T14:54:47;9.32;;;7.53;;